sensor_id;sensor_type;location;lat;lon;timestamp;P1;durP1;ratioP1;P2;durP2;ratioP2
47856;SDS011;33618;49.972;8.242;2023-04-25T00:00:24;8.52;;;5.28;;
47856;SDS011;33618;49.972;8.242;2023-04-25T00:02:52;5.90;;;5.30;;
47856;SDS011;33618;49.972;8.242;2023-04-25T00:05:19;6.25;;;5.60;;
47856;SDS011;33618;49.972;8.242;2023-04-25T00:07:47;6.35;;;5.30;;
47856;SDS011;33618;49.972;8.242;2023-04-25T00:10:13;7.32;;;5.85;;
47856;SDS011;33618;49.972;8.242;2023-04-25T00:12:40;6.00;;;5.15;;
47856;SDS011;33618;49.972;8.242;2023-04-25T00:15:08;5.80;;;5.20;;
47856;SDS011;33618;49.972;8.242;2023-04-25T00:17:35;6.25;;;5.15;;
47856;SDS011;33618;49.972;8.242;2023-04-25T00:20:04;6.90;;;5.70;;
47856;SDS011;33618;49.972;8.242;2023-04-25T00:22:34;5.78;;;5.25;;
47856;SDS011;33618;49.972;8.242;2023-04-25T00:25:04;6.72;;;5.50;;
47856;SDS011;33618;49.972;8.242;2023-04-25T00:27:32;6.80;;;5.55;;
47856;SDS011;33618;49.972;8.242;2023-04-25T00:29:59;6.47;;;5.40;;
47856;SDS011;33618;49.972;8.242;2023-04-25T00:32:26;6.75;;;5.20;;
47856;SDS011;33618;49.972;8.242;2023-04-25T00:34:53;6.63;;;5.50;;
47856;SDS011;33618;49.972;8.242;2023-04-25T00:37:21;9.30;;;5.40;;
47856;SDS011;33618;49.972;8.242;2023-04-25T00:39:48;5.93;;;5.32;;
47856;SDS011;33618;49.972;8.242;2023-04-25T00:42:15;8.52;;;5.57;;
47856;SDS011;33618;49.972;8.242;2023-04-25T00:44:42;7.35;;;5.38;;
47856;SDS011;33618;49.972;8.242;2023-04-25T00:47:11;7.28;;;5.50;;
47856;SDS011;33618;49.972;8.242;2023-04-25T00:49:38;6.55;;;5.82;;
47856;SDS011;33618;49.972;8.242;2023-04-25T00:52:05;6.07;;;5.30;;
47856;SDS011;33618;49.972;8.242;2023-04-25T00:54:32;5.88;;;5.32;;
47856;SDS011;33618;49.972;8.242;2023-04-25T00:56:59;6.40;;;5.18;;
47856;SDS011;33618;49.972;8.242;2023-04-25T00:59:27;5.85;;;5.28;;
47856;SDS011;33618;49.972;8.242;2023-04-25T01:01:54;6.10;;;5.50;;
47856;SDS011;33618;49.972;8.242;2023-04-25T01:04:21;8.02;;;5.53;;
47856;SDS011;33618;49.972;8.242;2023-04-25T01:06:48;6.03;;;5.43;;
47856;SDS011;33618;49.972;8.242;2023-04-25T01:09:15;6.20;;;5.53;;
47856;SDS011;33618;49.972;8.242;2023-04-25T01:11:42;8.68;;;5.78;;
47856;SDS011;33618;49.972;8.242;2023-04-25T01:14:09;7.03;;;5.72;;
47856;SDS011;33618;49.972;8.242;2023-04-25T01:16:36;6.18;;;5.57;;
47856;SDS011;33618;49.972;8.242;2023-04-25T01:19:05;6.97;;;5.60;;
47856;SDS011;33618;49.972;8.242;2023-04-25T01:21:37;6.13;;;5.53;;
47856;SDS011;33618;49.972;8.242;2023-04-25T01:24:06;5.60;;;5.10;;
47856;SDS011;33618;49.972;8.242;2023-04-25T01:26:34;5.70;;;5.13;;
47856;SDS011;33618;49.972;8.242;2023-04-25T01:29:03;5.45;;;4.95;;
47856;SDS011;33618;49.972;8.242;2023-04-25T01:31:31;6.10;;;5.20;;
47856;SDS011;33618;49.972;8.242;2023-04-25T01:33:59;5.78;;;5.18;;
47856;SDS011;33618;49.972;8.242;2023-04-25T01:36:26;6.20;;;5.07;;
47856;SDS011;33618;49.972;8.242;2023-04-25T01:38:54;6.00;;;5.40;;
47856;SDS011;33618;49.972;8.242;2023-04-25T01:41:21;6.72;;;5.63;;
47856;SDS011;33618;49.972;8.242;2023-04-25T01:43:49;7.20;;;5.38;;
47856;SDS011;33618;49.972;8.242;2023-04-25T01:46:17;6.75;;;5.00;;
47856;SDS011;33618;49.972;8.242;2023-04-25T01:48:44;7.25;;;4.90;;
47856;SDS011;33618;49.972;8.242;2023-04-25T01:51:11;8.50;;;5.60;;
47856;SDS011;33618;49.972;8.242;2023-04-25T01:53:39;6.20;;;5.47;;
47856;SDS011;33618;49.972;8.242;2023-04-25T01:56:06;5.88;;;5.32;;
47856;SDS011;33618;49.972;8.242;2023-04-25T01:58:33;6.07;;;5.43;;
47856;SDS011;33618;49.972;8.242;2023-04-25T02:01:00;6.07;;;4.85;;
47856;SDS011;33618;49.972;8.242;2023-04-25T02:03:27;6.13;;;5.18;;
47856;SDS011;33618;49.972;8.242;2023-04-25T02:05:54;6.05;;;5.32;;
47856;SDS011;33618;49.972;8.242;2023-04-25T02:08:21;6.00;;;5.45;;
47856;SDS011;33618;49.972;8.242;2023-04-25T02:10:47;6.57;;;5.85;;
47856;SDS011;33618;49.972;8.242;2023-04-25T02:13:17;6.75;;;6.00;;
47856;SDS011;33618;49.972;8.242;2023-04-25T02:15:44;7.53;;;5.32;;
47856;SDS011;33618;49.972;8.242;2023-04-25T02:18:11;6.55;;;5.95;;
47856;SDS011;33618;49.972;8.242;2023-04-25T02:20:38;6.13;;;5.60;;
47856;SDS011;33618;49.972;8.242;2023-04-25T02:23:04;6.25;;;5.65;;
47856;SDS011;33618;49.972;8.242;2023-04-25T02:25:34;8.00;;;5.88;;
47856;SDS011;33618;49.972;8.242;2023-04-25T02:28:01;6.65;;;5.95;;
47856;SDS011;33618;49.972;8.242;2023-04-25T02:30:28;6.85;;;6.07;;
47856;SDS011;33618;49.972;8.242;2023-04-25T02:32:55;6.43;;;5.80;;
47856;SDS011;33618;49.972;8.242;2023-04-25T02:35:23;8.35;;;6.15;;
47856;SDS011;33618;49.972;8.242;2023-04-25T02:37:50;7.22;;;6.10;;
47856;SDS011;33618;49.972;8.242;2023-04-25T02:40:17;7.82;;;6.22;;
47856;SDS011;33618;49.972;8.242;2023-04-25T02:42:44;8.95;;;5.95;;
47856;SDS011;33618;49.972;8.242;2023-04-25T02:45:14;10.50;;;6.68;;
47856;SDS011;33618;49.972;8.242;2023-04-25T02:47:41;10.40;;;6.30;;
47856;SDS011;33618;49.972;8.242;2023-04-25T02:50:08;9.63;;;6.78;;
47856;SDS011;33618;49.972;8.242;2023-04-25T02:52:36;8.85;;;6.63;;
47856;SDS011;33618;49.972;8.242;2023-04-25T02:55:02;11.43;;;6.80;;
47856;SDS011;33618;49.972;8.242;2023-04-25T02:57:29;9.15;;;7.07;;
47856;SDS011;33618;49.972;8.242;2023-04-25T02:59:56;8.43;;;6.65;;
47856;SDS011;33618;49.972;8.242;2023-04-25T03:02:23;8.88;;;7.47;;
47856;SDS011;33618;49.972;8.242;2023-04-25T03:04:50;8.45;;;6.88;;
47856;SDS011;33618;49.972;8.242;2023-04-25T03:07:18;7.45;;;6.65;;
47856;SDS011;33618;49.972;8.242;2023-04-25T03:09:45;11.55;;;6.72;;
47856;SDS011;33618;49.972;8.242;2023-04-25T03:12:12;8.98;;;7.15;;
47856;SDS011;33618;49.972;8.242;2023-04-25T03:14:39;8.98;;;6.95;;
47856;SDS011;33618;49.972;8.242;2023-04-25T03:17:07;8.45;;;6.78;;
47856;SDS011;33618;49.972;8.242;2023-04-25T03:19:33;8.38;;;6.90;;
47856;SDS011;33618;49.972;8.242;2023-04-25T03:22:00;9.18;;;6.53;;
47856;SDS011;33618;49.972;8.242;2023-04-25T03:24:27;9.73;;;7.10;;
47856;SDS011;33618;49.972;8.242;2023-04-25T03:26:54;8.60;;;6.78;;
47856;SDS011;33618;49.972;8.242;2023-04-25T03:29:21;7.93;;;6.95;;
47856;SDS011;33618;49.972;8.242;2023-04-25T03:31:50;9.25;;;6.82;;
47856;SDS011;33618;49.972;8.242;2023-04-25T03:34:17;8.30;;;6.82;;
47856;SDS011;33618;49.972;8.242;2023-04-25T03:36:44;11.60;;;7.88;;
47856;SDS011;33618;49.972;8.242;2023-04-25T03:39:11;10.80;;;7.95;;
47856;SDS011;33618;49.972;8.242;2023-04-25T03:41:38;13.88;;;8.32;;
47856;SDS011;33618;49.972;8.242;2023-04-25T03:44:05;14.55;;;8.23;;
47856;SDS011;33618;49.972;8.242;2023-04-25T03:46:31;11.90;;;8.43;;
47856;SDS011;33618;49.972;8.242;2023-04-25T03:48:59;13.50;;;8.82;;
47856;SDS011;33618;49.972;8.242;2023-04-25T03:51:27;15.48;;;9.15;;
47856;SDS011;33618;49.972;8.242;2023-04-25T03:53:57;16.77;;;10.10;;
47856;SDS011;33618;49.972;8.242;2023-04-25T03:56:25;14.60;;;9.10;;
47856;SDS011;33618;49.972;8.242;2023-04-25T03:58:52;15.27;;;9.40;;
47856;SDS011;33618;49.972;8.242;2023-04-25T04:01:19;14.48;;;10.07;;
47856;SDS011;33618;49.972;8.242;2023-04-25T04:03:46;19.00;;;9.63;;
47856;SDS011;33618;49.972;8.242;2023-04-25T04:06:13;15.35;;;10.13;;
47856;SDS011;33618;49.972;8.242;2023-04-25T04:08:46;19.05;;;10.15;;
47856;SDS011;33618;49.972;8.242;2023-04-25T04:11:13;19.10;;;10.38;;
47856;SDS011;33618;49.972;8.242;2023-04-25T04:13:40;14.70;;;9.43;;
47856;SDS011;33618;49.972;8.242;2023-04-25T04:16:07;14.70;;;10.18;;
47856;SDS011;33618;49.972;8.242;2023-04-25T04:18:36;17.27;;;9.82;;
47856;SDS011;33618;49.972;8.242;2023-04-25T04:21:06;18.08;;;10.52;;
47856;SDS011;33618;49.972;8.242;2023-04-25T04:23:33;14.93;;;10.05;;
47856;SDS011;33618;49.972;8.242;2023-04-25T04:25:59;18.05;;;10.02;;
47856;SDS011;33618;49.972;8.242;2023-04-25T04:28:27;17.58;;;9.48;;
47856;SDS011;33618;49.972;8.242;2023-04-25T04:31:01;19.80;;;9.70;;
47856;SDS011;33618;49.972;8.242;2023-04-25T04:33:30;16.85;;;9.68;;
47856;SDS011;33618;49.972;8.242;2023-04-25T04:35:57;20.42;;;9.57;;
47856;SDS011;33618;49.972;8.242;2023-04-25T04:38:30;18.33;;;10.00;;
47856;SDS011;33618;49.972;8.242;2023-04-25T04:40:58;16.15;;;8.95;;
47856;SDS011;33618;49.972;8.242;2023-04-25T04:43:25;17.80;;;9.68;;
47856;SDS011;33618;49.972;8.242;2023-04-25T04:45:52;15.85;;;9.63;;
47856;SDS011;33618;49.972;8.242;2023-04-25T04:48:24;15.10;;;8.93;;
47856;SDS011;33618;49.972;8.242;2023-04-25T04:50:51;17.25;;;7.63;;
47856;SDS011;33618;49.972;8.242;2023-04-25T04:53:18;15.30;;;8.18;;
47856;SDS011;33618;49.972;8.242;2023-04-25T04:55:45;12.98;;;6.35;;
47856;SDS011;33618;49.972;8.242;2023-04-25T04:58:12;12.10;;;6.25;;
47856;SDS011;33618;49.972;8.242;2023-04-25T05:00:42;15.75;;;6.57;;
47856;SDS011;33618;49.972;8.242;2023-04-25T05:03:10;14.32;;;5.65;;
47856;SDS011;33618;49.972;8.242;2023-04-25T05:05:37;14.25;;;6.45;;
47856;SDS011;33618;49.972;8.242;2023-04-25T05:08:06;11.90;;;5.90;;
47856;SDS011;33618;49.972;8.242;2023-04-25T05:10:32;13.60;;;6.25;;
47856;SDS011;33618;49.972;8.242;2023-04-25T05:13:09;14.40;;;6.45;;
47856;SDS011;33618;49.972;8.242;2023-04-25T05:15:36;14.90;;;6.75;;
47856;SDS011;33618;49.972;8.242;2023-04-25T05:18:03;16.42;;;7.45;;
47856;SDS011;33618;49.972;8.242;2023-04-25T05:20:34;15.70;;;6.57;;
47856;SDS011;33618;49.972;8.242;2023-04-25T05:23:01;11.60;;;6.20;;
47856;SDS011;33618;49.972;8.242;2023-04-25T05:25:28;16.58;;;6.47;;
47856;SDS011;33618;49.972;8.242;2023-04-25T05:27:55;14.00;;;5.93;;
47856;SDS011;33618;49.972;8.242;2023-04-25T05:30:23;14.88;;;6.43;;
47856;SDS011;33618;49.972;8.242;2023-04-25T05:32:49;12.35;;;6.20;;
47856;SDS011;33618;49.972;8.242;2023-04-25T05:35:16;10.85;;;6.47;;
47856;SDS011;33618;49.972;8.242;2023-04-25T05:37:43;13.02;;;6.13;;
47856;SDS011;33618;49.972;8.242;2023-04-25T05:40:10;16.10;;;6.75;;
47856;SDS011;33618;49.972;8.242;2023-04-25T05:42:38;13.73;;;6.25;;
47856;SDS011;33618;49.972;8.242;2023-04-25T05:45:05;13.93;;;6.32;;
47856;SDS011;33618;49.972;8.242;2023-04-25T05:47:32;13.88;;;6.43;;
47856;SDS011;33618;49.972;8.242;2023-04-25T05:49:59;10.30;;;6.38;;
47856;SDS011;33618;49.972;8.242;2023-04-25T05:52:25;10.27;;;5.88;;
47856;SDS011;33618;49.972;8.242;2023-04-25T05:54:53;12.63;;;6.05;;
47856;SDS011;33618;49.972;8.242;2023-04-25T05:57:20;10.85;;;5.97;;
47856;SDS011;33618;49.972;8.242;2023-04-25T05:59:48;13.65;;;7.05;;
47856;SDS011;33618;49.972;8.242;2023-04-25T06:02:15;14.70;;;6.45;;
47856;SDS011;33618;49.972;8.242;2023-04-25T06:04:42;10.80;;;6.18;;
47856;SDS011;33618;49.972;8.242;2023-04-25T06:07:13;11.27;;;6.20;;
47856;SDS011;33618;49.972;8.242;2023-04-25T06:09:40;11.40;;;6.20;;
47856;SDS011;33618;49.972;8.242;2023-04-25T06:12:07;13.40;;;6.82;;
47856;SDS011;33618;49.972;8.242;2023-04-25T06:14:34;13.10;;;6.60;;
47856;SDS011;33618;49.972;8.242;2023-04-25T06:17:01;16.50;;;6.78;;
47856;SDS011;33618;49.972;8.242;2023-04-25T06:19:35;12.63;;;5.75;;
47856;SDS011;33618;49.972;8.242;2023-04-25T06:22:02;10.68;;;5.93;;
47856;SDS011;33618;49.972;8.242;2023-04-25T06:24:29;11.40;;;5.25;;
47856;SDS011;33618;49.972;8.242;2023-04-25T06:26:56;15.90;;;5.88;;
47856;SDS011;33618;49.972;8.242;2023-04-25T06:29:22;12.88;;;6.25;;
47856;SDS011;33618;49.972;8.242;2023-04-25T06:31:50;15.23;;;6.18;;
47856;SDS011;33618;49.972;8.242;2023-04-25T06:34:18;10.52;;;5.35;;
47856;SDS011;33618;49.972;8.242;2023-04-25T06:36:45;9.57;;;4.80;;
47856;SDS011;33618;49.972;8.242;2023-04-25T06:39:12;11.70;;;5.15;;
47856;SDS011;33618;49.972;8.242;2023-04-25T06:41:39;13.23;;;4.95;;
47856;SDS011;33618;49.972;8.242;2023-04-25T06:44:11;8.85;;;5.20;;
47856;SDS011;33618;49.972;8.242;2023-04-25T06:46:38;10.35;;;5.20;;
47856;SDS011;33618;49.972;8.242;2023-04-25T06:49:05;17.77;;;5.65;;
47856;SDS011;33618;49.972;8.242;2023-04-25T06:51:32;10.20;;;6.05;;
47856;SDS011;33618;49.972;8.242;2023-04-25T06:53:59;8.82;;;4.70;;
47856;SDS011;33618;49.972;8.242;2023-04-25T06:56:30;10.60;;;5.70;;
47856;SDS011;33618;49.972;8.242;2023-04-25T06:58:57;9.93;;;5.30;;
47856;SDS011;33618;49.972;8.242;2023-04-25T07:01:26;8.45;;;4.18;;
47856;SDS011;33618;49.972;8.242;2023-04-25T07:03:53;8.15;;;4.65;;
47856;SDS011;33618;49.972;8.242;2023-04-25T07:06:28;7.95;;;4.30;;
47856;SDS011;33618;49.972;8.242;2023-04-25T07:08:55;11.25;;;4.43;;
47856;SDS011;33618;49.972;8.242;2023-04-25T07:11:22;9.13;;;4.53;;
47856;SDS011;33618;49.972;8.242;2023-04-25T07:13:49;9.80;;;5.00;;
47856;SDS011;33618;49.972;8.242;2023-04-25T07:16:22;10.40;;;4.20;;
47856;SDS011;33618;49.972;8.242;2023-04-25T07:18:49;7.10;;;4.07;;
47856;SDS011;33618;49.972;8.242;2023-04-25T07:21:17;11.88;;;4.70;;
47856;SDS011;33618;49.972;8.242;2023-04-25T07:23:44;8.07;;;4.65;;
47856;SDS011;33618;49.972;8.242;2023-04-25T07:26:12;9.00;;;4.18;;
47856;SDS011;33618;49.972;8.242;2023-04-25T07:28:41;9.35;;;4.25;;
47856;SDS011;33618;49.972;8.242;2023-04-25T07:31:08;7.55;;;4.13;;
47856;SDS011;33618;49.972;8.242;2023-04-25T07:33:35;9.68;;;4.15;;
47856;SDS011;33618;49.972;8.242;2023-04-25T07:36:02;7.35;;;3.90;;
47856;SDS011;33618;49.972;8.242;2023-04-25T07:38:28;8.52;;;3.85;;
47856;SDS011;33618;49.972;8.242;2023-04-25T07:41:00;6.90;;;3.90;;
47856;SDS011;33618;49.972;8.242;2023-04-25T07:43:27;7.47;;;3.75;;
47856;SDS011;33618;49.972;8.242;2023-04-25T07:45:54;4.28;;;3.28;;
47856;SDS011;33618;49.972;8.242;2023-04-25T07:48:24;6.95;;;3.83;;
47856;SDS011;33618;49.972;8.242;2023-04-25T07:50:51;8.15;;;4.05;;
47856;SDS011;33618;49.972;8.242;2023-04-25T07:53:18;5.05;;;3.63;;
47856;SDS011;33618;49.972;8.242;2023-04-25T07:55:45;4.32;;;2.70;;
47856;SDS011;33618;49.972;8.242;2023-04-25T07:58:12;5.38;;;2.63;;
47856;SDS011;33618;49.972;8.242;2023-04-25T08:00:44;2.58;;;2.05;;
47856;SDS011;33618;49.972;8.242;2023-04-25T08:03:11;4.47;;;2.10;;
47856;SDS011;33618;49.972;8.242;2023-04-25T08:05:38;2.60;;;2.38;;
47856;SDS011;33618;49.972;8.242;2023-04-25T08:08:04;4.95;;;1.88;;
47856;SDS011;33618;49.972;8.242;2023-04-25T08:10:38;4.53;;;2.17;;
47856;SDS011;33618;49.972;8.242;2023-04-25T08:13:05;5.25;;;2.38;;
47856;SDS011;33618;49.972;8.242;2023-04-25T08:15:33;3.05;;;1.98;;
47856;SDS011;33618;49.972;8.242;2023-04-25T08:18:00;5.90;;;2.15;;
47856;SDS011;33618;49.972;8.242;2023-04-25T08:20:27;3.03;;;2.15;;
47856;SDS011;33618;49.972;8.242;2023-04-25T08:22:54;3.83;;;2.17;;
47856;SDS011;33618;49.972;8.242;2023-04-25T08:25:21;5.22;;;2.00;;
47856;SDS011;33618;49.972;8.242;2023-04-25T08:27:48;5.60;;;2.08;;
47856;SDS011;33618;49.972;8.242;2023-04-25T08:30:14;3.95;;;1.90;;
47856;SDS011;33618;49.972;8.242;2023-04-25T08:32:41;3.35;;;1.95;;
47856;SDS011;33618;49.972;8.242;2023-04-25T08:35:09;6.70;;;1.95;;
47856;SDS011;33618;49.972;8.242;2023-04-25T08:37:35;3.47;;;2.00;;
47856;SDS011;33618;49.972;8.242;2023-04-25T08:40:03;3.97;;;1.90;;
47856;SDS011;33618;49.972;8.242;2023-04-25T08:42:33;1.95;;;1.80;;
47856;SDS011;33618;49.972;8.242;2023-04-25T08:45:01;4.88;;;2.10;;
47856;SDS011;33618;49.972;8.242;2023-04-25T08:47:32;4.50;;;2.00;;
47856;SDS011;33618;49.972;8.242;2023-04-25T08:50:02;5.68;;;2.05;;
47856;SDS011;33618;49.972;8.242;2023-04-25T08:52:30;5.65;;;2.13;;
47856;SDS011;33618;49.972;8.242;2023-04-25T08:55:02;5.05;;;2.00;;
47856;SDS011;33618;49.972;8.242;2023-04-25T08:57:31;4.53;;;2.25;;
47856;SDS011;33618;49.972;8.242;2023-04-25T08:59:59;2.72;;;1.75;;
47856;SDS011;33618;49.972;8.242;2023-04-25T09:02:27;2.55;;;2.25;;
47856;SDS011;33618;49.972;8.242;2023-04-25T09:04:55;3.22;;;2.22;;
47856;SDS011;33618;49.972;8.242;2023-04-25T09:07:23;3.03;;;2.40;;
47856;SDS011;33618;49.972;8.242;2023-04-25T09:09:51;3.85;;;2.55;;
47856;SDS011;33618;49.972;8.242;2023-04-25T09:12:19;5.60;;;2.10;;
47856;SDS011;33618;49.972;8.242;2023-04-25T09:15:00;3.85;;;2.05;;
47856;SDS011;33618;49.972;8.242;2023-04-25T09:17:35;2.63;;;2.20;;
47856;SDS011;33618;49.972;8.242;2023-04-25T09:20:07;3.92;;;2.20;;
47856;SDS011;33618;49.972;8.242;2023-04-25T09:22:36;2.65;;;2.08;;
47856;SDS011;33618;49.972;8.242;2023-04-25T09:25:08;2.40;;;2.20;;
47856;SDS011;33618;49.972;8.242;2023-04-25T09:27:36;2.60;;;2.38;;
47856;SDS011;33618;49.972;8.242;2023-04-25T09:30:15;4.13;;;2.55;;
47856;SDS011;33618;49.972;8.242;2023-04-25T09:32:43;2.83;;;2.28;;
47856;SDS011;33618;49.972;8.242;2023-04-25T09:35:10;3.55;;;2.67;;
47856;SDS011;33618;49.972;8.242;2023-04-25T09:37:51;4.53;;;2.45;;
47856;SDS011;33618;49.972;8.242;2023-04-25T09:40:18;2.53;;;2.33;;
47856;SDS011;33618;49.972;8.242;2023-04-25T09:42:44;3.88;;;2.53;;
47856;SDS011;33618;49.972;8.242;2023-04-25T09:45:14;3.47;;;2.42;;
47856;SDS011;33618;49.972;8.242;2023-04-25T09:47:41;4.97;;;2.63;;
47856;SDS011;33618;49.972;8.242;2023-04-25T09:50:14;5.68;;;3.28;;
47856;SDS011;33618;49.972;8.242;2023-04-25T09:52:42;5.20;;;3.20;;
47856;SDS011;33618;49.972;8.242;2023-04-25T09:55:09;4.03;;;2.78;;
47856;SDS011;33618;49.972;8.242;2023-04-25T09:57:36;4.57;;;3.22;;
47856;SDS011;33618;49.972;8.242;2023-04-25T10:00:06;5.25;;;3.30;;
47856;SDS011;33618;49.972;8.242;2023-04-25T10:02:38;5.93;;;2.67;;
47856;SDS011;33618;49.972;8.242;2023-04-25T10:05:07;4.50;;;3.13;;
47856;SDS011;33618;49.972;8.242;2023-04-25T10:07:35;5.47;;;3.58;;
47856;SDS011;33618;49.972;8.242;2023-04-25T10:10:04;3.65;;;3.20;;
47856;SDS011;33618;49.972;8.242;2023-04-25T10:12:32;7.10;;;3.80;;
47856;SDS011;33618;49.972;8.242;2023-04-25T10:15:00;5.38;;;4.20;;
47856;SDS011;33618;49.972;8.242;2023-04-25T10:17:28;4.07;;;3.47;;
47856;SDS011;33618;49.972;8.242;2023-04-25T10:19:56;6.15;;;3.80;;
47856;SDS011;33618;49.972;8.242;2023-04-25T10:22:26;6.03;;;3.65;;
47856;SDS011;33618;49.972;8.242;2023-04-25T10:24:59;5.70;;;4.40;;
47856;SDS011;33618;49.972;8.242;2023-04-25T10:27:30;5.28;;;3.60;;
47856;SDS011;33618;49.972;8.242;2023-04-25T10:30:05;5.50;;;3.72;;
47856;SDS011;33618;49.972;8.242;2023-04-25T10:32:38;4.60;;;3.60;;
47856;SDS011;33618;49.972;8.242;2023-04-25T10:35:14;4.22;;;3.75;;
47856;SDS011;33618;49.972;8.242;2023-04-25T10:37:56;6.43;;;3.47;;
47856;SDS011;33618;49.972;8.242;2023-04-25T10:40:31;5.78;;;3.45;;
47856;SDS011;33618;49.972;8.242;2023-04-25T10:45:59;6.90;;;3.97;;
47856;SDS011;33618;49.972;8.242;2023-04-25T10:48:27;7.20;;;3.70;;
47856;SDS011;33618;49.972;8.242;2023-04-25T10:51:09;8.90;;;3.80;;
47856;SDS011;33618;49.972;8.242;2023-04-25T10:53:37;6.78;;;4.07;;
47856;SDS011;33618;49.972;8.242;2023-04-25T10:56:11;5.53;;;3.92;;
47856;SDS011;33618;49.972;8.242;2023-04-25T10:59:14;5.35;;;3.47;;
47856;SDS011;33618;49.972;8.242;2023-04-25T11:01:42;6.95;;;3.70;;
47856;SDS011;33618;49.972;8.242;2023-04-25T11:04:29;5.65;;;3.40;;
47856;SDS011;33618;49.972;8.242;2023-04-25T11:09:40;4.35;;;3.47;;
47856;SDS011;33618;49.972;8.242;2023-04-25T11:12:07;8.07;;;3.60;;
47856;SDS011;33618;49.972;8.242;2023-04-25T11:14:35;5.72;;;3.42;;
47856;SDS011;33618;49.972;8.242;2023-04-25T11:17:02;10.00;;;3.40;;
47856;SDS011;33618;49.972;8.242;2023-04-25T11:19:29;5.90;;;3.20;;
47856;SDS011;33618;49.972;8.242;2023-04-25T11:21:57;6.78;;;3.70;;
47856;SDS011;33618;49.972;8.242;2023-04-25T11:24:29;5.53;;;3.28;;
47856;SDS011;33618;49.972;8.242;2023-04-25T11:26:58;5.75;;;3.30;;
47856;SDS011;33618;49.972;8.242;2023-04-25T11:29:29;5.53;;;3.13;;
47856;SDS011;33618;49.972;8.242;2023-04-25T11:31:57;7.47;;;3.50;;
47856;SDS011;33618;49.972;8.242;2023-04-25T11:34:25;5.95;;;3.13;;
47856;SDS011;33618;49.972;8.242;2023-04-25T11:36:52;6.72;;;3.30;;
47856;SDS011;33618;49.972;8.242;2023-04-25T11:39:20;9.30;;;2.78;;
47856;SDS011;33618;49.972;8.242;2023-04-25T11:41:47;5.43;;;3.00;;
47856;SDS011;33618;49.972;8.242;2023-04-25T11:44:17;6.45;;;3.38;;
47856;SDS011;33618;49.972;8.242;2023-04-25T11:46:45;4.68;;;2.85;;
47856;SDS011;33618;49.972;8.242;2023-04-25T11:49:12;5.10;;;2.83;;
47856;SDS011;33618;49.972;8.242;2023-04-25T11:54:07;6.57;;;3.10;;
47856;SDS011;33618;49.972;8.242;2023-04-25T11:56:34;6.43;;;3.30;;
47856;SDS011;33618;49.972;8.242;2023-04-25T11:59:02;6.38;;;2.90;;
47856;SDS011;33618;49.972;8.242;2023-04-25T12:01:34;10.00;;;3.10;;
47856;SDS011;33618;49.972;8.242;2023-04-25T12:04:16;4.68;;;2.95;;
47856;SDS011;33618;49.972;8.242;2023-04-25T12:06:46;5.63;;;2.78;;
47856;SDS011;33618;49.972;8.242;2023-04-25T12:09:15;6.93;;;3.28;;
47856;SDS011;33618;49.972;8.242;2023-04-25T12:11:48;5.00;;;2.75;;
47856;SDS011;33618;49.972;8.242;2023-04-25T12:14:23;9.07;;;2.78;;
47856;SDS011;33618;49.972;8.242;2023-04-25T12:16:50;5.43;;;2.78;;
47856;SDS011;33618;49.972;8.242;2023-04-25T12:19:18;3.10;;;2.42;;
47856;SDS011;33618;49.972;8.242;2023-04-25T12:21:47;7.38;;;3.08;;
47856;SDS011;33618;49.972;8.242;2023-04-25T12:24:25;5.72;;;2.92;;
47856;SDS011;33618;49.972;8.242;2023-04-25T12:29:28;6.03;;;2.50;;
47856;SDS011;33618;49.972;8.242;2023-04-25T12:32:13;5.40;;;2.90;;
47856;SDS011;33618;49.972;8.242;2023-04-25T12:34:40;7.38;;;2.92;;
47856;SDS011;33618;49.972;8.242;2023-04-25T12:37:07;5.30;;;2.53;;
47856;SDS011;33618;49.972;8.242;2023-04-25T12:39:34;3.97;;;2.50;;
47856;SDS011;33618;49.972;8.242;2023-04-25T12:42:01;5.18;;;2.75;;
47856;SDS011;33618;49.972;8.242;2023-04-25T12:44:30;5.47;;;2.60;;
47856;SDS011;33618;49.972;8.242;2023-04-25T12:46:57;7.75;;;2.63;;
47856;SDS011;33618;49.972;8.242;2023-04-25T12:49:26;5.93;;;2.30;;
47856;SDS011;33618;49.972;8.242;2023-04-25T12:51:53;6.43;;;2.38;;
47856;SDS011;33618;49.972;8.242;2023-04-25T12:54:19;7.43;;;2.15;;
47856;SDS011;33618;49.972;8.242;2023-04-25T12:56:46;3.45;;;2.15;;
47856;SDS011;33618;49.972;8.242;2023-04-25T12:59:14;4.75;;;2.20;;
47856;SDS011;33618;49.972;8.242;2023-04-25T13:01:41;6.03;;;2.63;;
47856;SDS011;33618;49.972;8.242;2023-04-25T13:04:09;5.38;;;2.35;;
47856;SDS011;33618;49.972;8.242;2023-04-25T13:06:36;4.82;;;2.70;;
47856;SDS011;33618;49.972;8.242;2023-04-25T13:09:03;5.20;;;2.30;;
47856;SDS011;33618;49.972;8.242;2023-04-25T13:11:29;5.75;;;2.42;;
47856;SDS011;33618;49.972;8.242;2023-04-25T13:13:57;6.00;;;2.38;;
47856;SDS011;33618;49.972;8.242;2023-04-25T13:16:24;3.72;;;2.40;;
47856;SDS011;33618;49.972;8.242;2023-04-25T13:18:51;5.50;;;2.33;;
47856;SDS011;33618;49.972;8.242;2023-04-25T13:21:17;4.30;;;2.28;;
47856;SDS011;33618;49.972;8.242;2023-04-25T13:23:44;6.43;;;2.25;;
47856;SDS011;33618;49.972;8.242;2023-04-25T13:26:12;4.93;;;2.25;;
47856;SDS011;33618;49.972;8.242;2023-04-25T13:28:39;8.13;;;2.42;;
47856;SDS011;33618;49.972;8.242;2023-04-25T13:31:10;6.93;;;2.50;;
47856;SDS011;33618;49.972;8.242;2023-04-25T13:33:37;3.65;;;2.10;;
47856;SDS011;33618;49.972;8.242;2023-04-25T13:36:04;4.13;;;2.20;;
47856;SDS011;33618;49.972;8.242;2023-04-25T13:38:31;5.03;;;2.08;;
47856;SDS011;33618;49.972;8.242;2023-04-25T13:40:58;6.95;;;2.30;;
47856;SDS011;33618;49.972;8.242;2023-04-25T13:43:25;3.42;;;2.17;;
47856;SDS011;33618;49.972;8.242;2023-04-25T13:45:52;7.97;;;2.85;;
47856;SDS011;33618;49.972;8.242;2023-04-25T13:48:19;5.63;;;2.15;;
47856;SDS011;33618;49.972;8.242;2023-04-25T13:50:46;6.78;;;2.20;;
47856;SDS011;33618;49.972;8.242;2023-04-25T13:53:13;6.75;;;2.20;;
47856;SDS011;33618;49.972;8.242;2023-04-25T13:55:40;4.57;;;1.95;;
47856;SDS011;33618;49.972;8.242;2023-04-25T13:58:07;6.18;;;1.98;;
47856;SDS011;33618;49.972;8.242;2023-04-25T14:00:38;6.55;;;2.30;;
47856;SDS011;33618;49.972;8.242;2023-04-25T14:03:05;7.63;;;2.58;;
47856;SDS011;33618;49.972;8.242;2023-04-25T14:05:35;6.30;;;2.10;;
47856;SDS011;33618;49.972;8.242;2023-04-25T14:08:08;5.18;;;2.20;;
47856;SDS011;33618;49.972;8.242;2023-04-25T14:10:36;5.55;;;1.92;;
47856;SDS011;33618;49.972;8.242;2023-04-25T14:13:04;2.63;;;2.00;;
47856;SDS011;33618;49.972;8.242;2023-04-25T14:15:33;4.45;;;2.17;;
47856;SDS011;33618;49.972;8.242;2023-04-25T14:18:01;6.22;;;1.90;;
47856;SDS011;33618;49.972;8.242;2023-04-25T14:20:28;4.47;;;2.28;;
47856;SDS011;33618;49.972;8.242;2023-04-25T14:22:55;2.92;;;1.70;;
47856;SDS011;33618;49.972;8.242;2023-04-25T14:25:24;4.82;;;2.58;;
47856;SDS011;33618;49.972;8.242;2023-04-25T14:27:52;6.10;;;2.38;;
47856;SDS011;33618;49.972;8.242;2023-04-25T14:30:19;4.35;;;2.10;;
47856;SDS011;33618;49.972;8.242;2023-04-25T14:32:48;8.88;;;2.30;;
47856;SDS011;33618;49.972;8.242;2023-04-25T14:35:16;6.18;;;2.08;;
47856;SDS011;33618;49.972;8.242;2023-04-25T14:37:43;4.20;;;2.17;;
47856;SDS011;33618;49.972;8.242;2023-04-25T14:40:10;3.35;;;1.80;;
47856;SDS011;33618;49.972;8.242;2023-04-25T14:42:39;5.05;;;2.10;;
47856;SDS011;33618;49.972;8.242;2023-04-25T14:45:06;3.25;;;1.90;;
47856;SDS011;33618;49.972;8.242;2023-04-25T14:47:37;3.83;;;2.00;;
47856;SDS011;33618;49.972;8.242;2023-04-25T14:50:05;3.15;;;2.08;;
47856;SDS011;33618;49.972;8.242;2023-04-25T14:52:32;3.70;;;2.03;;
47856;SDS011;33618;49.972;8.242;2023-04-25T14:54:59;7.97;;;2.90;;
47856;SDS011;33618;49.972;8.242;2023-04-25T15:55:03;6.38;;;1.63;;
47856;SDS011;33618;49.972;8.242;2023-04-25T15:57:32;3.00;;;1.67;;